Terminal Aerodrome Forecast
Issued by NWS

Home | Current Version | Previous Version | Text Only | Print | Product List | Glossary On
Versions: 1 2 3 4 5 6 7 8 9 10 11 12 13
467
FTUS46 KMFR 101138
TAFOTH
TAF
KOTH 101138Z 1012/1112 16006KT P6SM FEW090 SCT250
     FM101500 17007KT P6SM -RA SCT020 OVC040 WS020/20035KT
     FM101800 17008KT P6SM SCT035 BKN070 BKN200
     FM102100 23008KT P6SM BKN050 OVC070
     FM110600 VRB03KT P6SM -SHRA SCT035 BKN050 OVC100=

USA.gov is the U.S. government's official web portal to all federal, state and local government web resources and services.